Time,TemperatureF,DewpointF,PressureIn,WindDirection,WindDirectionDegrees,WindSpeedMPH,WindSpeedGustMPH,Humidity,HourlyPrecipIn,Conditions,Clouds,dailyrainin,SolarRadiationWatts/m^2,SoftwareType,DateUTC
2013-08-28 13:00:00,76.0,69.0,-100.00,ESE,112,4.0,-999.0,78,-99.99,,,-99.99,363.079987,,2013-08-28 17:00:00,
2013-08-28 13:44:00,76.0,69.0,-100.00,ESE,112,4.0,-999.0,78,-99.99,,,-99.99,363.079987,,2013-08-28 17:44:00,
2013-08-28 13:52:00,76.0,69.0,-100.00,ESE,112,4.0,-999.0,78,-99.99,,,-99.99,363.079987,,2013-08-28 17:52:00,
2013-08-28 14:00:00,80.0,69.0,-100.00,South,180,5.0,-999.0,69,-99.99,,,-99.99,469.799988,,2013-08-28 18:00:00,
2013-08-28 14:42:00,80.0,69.0,-100.00,South,180,5.0,-999.0,69,-99.99,,,-99.99,469.799988,,2013-08-28 18:42:00,
2013-08-28 14:53:00,80.0,69.0,-100.00,South,180,5.0,-999.0,69,-99.99,,,-99.99,469.799988,,2013-08-28 18:53:00,
2013-08-28 15:00:00,81.0,68.0,-100.00,SSE,157,4.0,-999.0,65,-99.99,,,-99.99,429.200012,,2013-08-28 19:00:00,
2013-08-28 15:42:00,81.0,68.0,-100.00,SSE,157,4.0,-999.0,65,-99.99,,,-99.99,429.200012,,2013-08-28 19:42:00,
2013-08-28 15:52:00,81.0,68.0,-100.00,SSE,157,4.0,-999.0,65,-99.99,,,-99.99,429.200012,,2013-08-28 19:52:00,
2013-08-28 16:00:00,83.0,68.0,-100.00,SE,135,3.0,-999.0,60,-99.99,,,-99.99,566.080017,,2013-08-28 20:00:00,
2013-08-28 16:43:00,83.0,68.0,-100.00,SE,135,3.0,-999.0,60,-99.99,,,-99.99,566.080017,,2013-08-28 20:43:00,
2013-08-28 16:52:00,83.0,68.0,-100.00,SE,135,3.0,-999.0,60,-99.99,,,-99.99,566.080017,,2013-08-28 20:52:00,
2013-08-28 17:00:00,85.0,68.0,-100.00,SE,135,4.0,-999.0,55,-99.99,,,-99.99,548.679993,,2013-08-28 21:00:00,
2013-08-28 17:44:00,85.0,68.0,-100.00,SE,135,4.0,-999.0,55,-99.99,,,-99.99,548.679993,,2013-08-28 21:44:00,
2013-08-28 17:58:00,85.0,68.0,-100.00,SE,135,4.0,-999.0,55,-99.99,,,-99.99,548.679993,,2013-08-28 21:58:00,
2013-08-28 18:00:00,87.0,67.0,-100.00,SE,135,3.0,-999.0,52,-99.99,,,-99.99,371.200012,,2013-08-28 22:00:00,
2013-08-28 18:43:00,87.0,67.0,-100.00,SE,135,3.0,-999.0,52,-99.99,,,-99.99,371.200012,,2013-08-28 22:43:00,
2013-08-28 18:54:00,87.0,67.0,-100.00,SE,135,3.0,-999.0,52,-99.99,,,-99.99,371.200012,,2013-08-28 22:54:00,
2013-08-28 19:00:00,87.0,67.0,-100.00,SSW,202,2.0,-999.0,52,-99.99,,,-99.99,194.880005,,2013-08-28 23:00:00,
2013-08-28 19:42:00,87.0,67.0,-100.00,SSW,202,2.0,-999.0,52,-99.99,,,-99.99,194.880005,,2013-08-28 23:42:00,
2013-08-28 19:53:00,87.0,67.0,-100.00,SSW,202,2.0,-999.0,52,-99.99,,,-99.99,194.880005,,2013-08-28 23:53:00,
2013-08-28 20:00:00,82.0,69.0,-100.00,NW,315,0.0,-999.0,65,0.01,,,-99.99,48.720001,,2013-08-29 00:00:00,
2013-08-28 21:00:00,76.0,70.0,-100.00,West,270,0.0,-999.0,81,-99.99,,,-99.99,3.480000,,2013-08-29 01:00:00,
2013-08-28 21:42:00,76.0,70.0,-100.00,West,270,0.0,-999.0,81,-99.99,,,-99.99,3.480000,,2013-08-29 01:42:00,
2013-08-28 21:52:00,76.0,70.0,-100.00,West,270,0.0,-999.0,81,-99.99,,,-99.99,3.480000,,2013-08-29 01:52:00,
2013-08-28 22:00:00,75.0,70.0,-100.00,WNW,292,0.0,-999.0,85,-99.99,,,-99.99,0.000000,,2013-08-29 02:00:00,
2013-08-28 22:52:00,75.0,70.0,-100.00,WNW,292,0.0,-999.0,85,-99.99,,,-99.99,0.000000,,2013-08-29 02:52:00,
2013-08-28 23:00:00,74.0,70.0,-100.00,WNW,292,1.0,-999.0,89,-99.99,,,-99.99,0.000000,,2013-08-29 03:00:00,
2013-08-28 23:45:00,74.0,70.0,-100.00,WNW,292,1.0,-999.0,89,-99.99,,,-99.99,0.000000,,2013-08-29 03:45:00,
2013-08-28 23:57:00,74.0,70.0,-100.00,WNW,292,1.0,-999.0,89,-99.99,,,-99.99,0.000000,,2013-08-29 03:57:00,